sensor_id;sensor_type;location;lat;lon;timestamp;P1;durP1;ratioP1;P2;durP2;ratioP2
51566;SDS011;37657;53.182;5.638;2023-07-29T00:01:22;6.43;;;3.80;;
51566;SDS011;37657;53.182;5.638;2023-07-29T00:03:47;5.97;;;3.78;;
51566;SDS011;37657;53.182;5.638;2023-07-29T00:06:13;8.13;;;4.45;;
51566;SDS011;37657;53.182;5.638;2023-07-29T00:08:39;9.80;;;5.07;;
51566;SDS011;37657;53.182;5.638;2023-07-29T00:11:04;8.82;;;5.05;;
51566;SDS011;37657;53.182;5.638;2023-07-29T00:13:30;9.07;;;5.13;;
51566;SDS011;37657;53.182;5.638;2023-07-29T00:15:55;6.93;;;4.35;;
51566;SDS011;37657;53.182;5.638;2023-07-29T00:18:21;9.07;;;4.75;;
51566;SDS011;37657;53.182;5.638;2023-07-29T00:20:47;8.68;;;4.97;;
51566;SDS011;37657;53.182;5.638;2023-07-29T00:23:13;8.35;;;5.15;;
51566;SDS011;37657;53.182;5.638;2023-07-29T00:25:39;7.28;;;3.95;;
51566;SDS011;37657;53.182;5.638;2023-07-29T00:28:04;7.15;;;4.63;;
51566;SDS011;37657;53.182;5.638;2023-07-29T00:30:31;6.57;;;4.13;;
51566;SDS011;37657;53.182;5.638;2023-07-29T00:32:56;8.88;;;5.10;;
51566;SDS011;37657;53.182;5.638;2023-07-29T00:35:22;8.70;;;5.22;;
51566;SDS011;37657;53.182;5.638;2023-07-29T00:37:47;8.75;;;4.47;;
51566;SDS011;37657;53.182;5.638;2023-07-29T00:40:19;8.63;;;5.43;;
51566;SDS011;37657;53.182;5.638;2023-07-29T00:42:45;11.85;;;5.47;;
51566;SDS011;37657;53.182;5.638;2023-07-29T00:45:11;6.65;;;4.32;;
51566;SDS011;37657;53.182;5.638;2023-07-29T00:47:38;7.82;;;5.72;;
51566;SDS011;37657;53.182;5.638;2023-07-29T00:50:04;6.55;;;4.20;;
51566;SDS011;37657;53.182;5.638;2023-07-29T00:52:31;7.60;;;4.20;;
51566;SDS011;37657;53.182;5.638;2023-07-29T00:54:57;5.57;;;3.53;;
51566;SDS011;37657;53.182;5.638;2023-07-29T00:57:23;7.32;;;4.03;;
51566;SDS011;37657;53.182;5.638;2023-07-29T00:59:50;9.57;;;5.00;;
51566;SDS011;37657;53.182;5.638;2023-07-29T01:02:16;10.68;;;5.20;;
51566;SDS011;37657;53.182;5.638;2023-07-29T01:04:42;9.05;;;5.45;;
51566;SDS011;37657;53.182;5.638;2023-07-29T01:12:48;8.18;;;5.22;;
51566;SDS011;37657;53.182;5.638;2023-07-29T01:18:32;13.23;;;5.85;;
51566;SDS011;37657;53.182;5.638;2023-07-29T01:21:04;7.93;;;4.80;;
51566;SDS011;37657;53.182;5.638;2023-07-29T01:23:36;9.23;;;5.63;;
51566;SDS011;37657;53.182;5.638;2023-07-29T01:26:02;9.50;;;5.80;;
51566;SDS011;37657;53.182;5.638;2023-07-29T01:28:28;10.50;;;5.95;;
51566;SDS011;37657;53.182;5.638;2023-07-29T01:31:05;8.75;;;6.68;;
51566;SDS011;37657;53.182;5.638;2023-07-29T01:33:39;10.55;;;6.28;;
51566;SDS011;37657;53.182;5.638;2023-07-29T01:36:36;9.63;;;6.25;;
51566;SDS011;37657;53.182;5.638;2023-07-29T01:39:05;13.63;;;6.68;;
51566;SDS011;37657;53.182;5.638;2023-07-29T01:41:33;12.48;;;7.68;;
51566;SDS011;37657;53.182;5.638;2023-07-29T01:43:59;10.50;;;6.57;;
51566;SDS011;37657;53.182;5.638;2023-07-29T01:46:26;11.95;;;5.50;;
51566;SDS011;37657;53.182;5.638;2023-07-29T01:48:52;8.95;;;5.35;;
51566;SDS011;37657;53.182;5.638;2023-07-29T01:51:17;9.23;;;6.80;;
51566;SDS011;37657;53.182;5.638;2023-07-29T01:53:44;8.60;;;5.85;;
51566;SDS011;37657;53.182;5.638;2023-07-29T01:56:10;7.53;;;5.82;;
51566;SDS011;37657;53.182;5.638;2023-07-29T01:58:35;10.88;;;5.60;;
51566;SDS011;37657;53.182;5.638;2023-07-29T02:01:01;11.90;;;5.70;;
51566;SDS011;37657;53.182;5.638;2023-07-29T02:03:27;6.28;;;4.82;;
51566;SDS011;37657;53.182;5.638;2023-07-29T02:05:53;8.43;;;5.43;;
51566;SDS011;37657;53.182;5.638;2023-07-29T02:08:18;7.45;;;5.55;;
51566;SDS011;37657;53.182;5.638;2023-07-29T02:10:44;9.27;;;4.30;;
51566;SDS011;37657;53.182;5.638;2023-07-29T02:13:10;9.80;;;5.03;;
51566;SDS011;37657;53.182;5.638;2023-07-29T02:15:36;7.55;;;5.15;;
51566;SDS011;37657;53.182;5.638;2023-07-29T02:18:01;7.63;;;5.18;;
51566;SDS011;37657;53.182;5.638;2023-07-29T02:20:28;8.10;;;4.57;;
51566;SDS011;37657;53.182;5.638;2023-07-29T02:22:54;7.60;;;4.25;;
51566;SDS011;37657;53.182;5.638;2023-07-29T02:25:19;9.75;;;5.15;;
51566;SDS011;37657;53.182;5.638;2023-07-29T02:27:45;7.32;;;4.82;;
51566;SDS011;37657;53.182;5.638;2023-07-29T02:30:11;8.02;;;5.47;;
51566;SDS011;37657;53.182;5.638;2023-07-29T02:32:37;8.48;;;5.47;;
51566;SDS011;37657;53.182;5.638;2023-07-29T02:35:03;16.30;;;4.70;;
51566;SDS011;37657;53.182;5.638;2023-07-29T02:37:29;8.68;;;4.85;;
51566;SDS011;37657;53.182;5.638;2023-07-29T02:39:55;7.95;;;4.80;;
51566;SDS011;37657;53.182;5.638;2023-07-29T02:42:21;7.05;;;4.75;;
51566;SDS011;37657;53.182;5.638;2023-07-29T02:44:46;5.95;;;3.83;;
51566;SDS011;37657;53.182;5.638;2023-07-29T02:47:12;14.95;;;5.65;;
51566;SDS011;37657;53.182;5.638;2023-07-29T02:49:38;7.88;;;4.78;;
51566;SDS011;37657;53.182;5.638;2023-07-29T02:52:03;7.05;;;4.45;;
51566;SDS011;37657;53.182;5.638;2023-07-29T02:54:29;8.10;;;5.10;;
51566;SDS011;37657;53.182;5.638;2023-07-29T02:56:54;6.45;;;3.95;;
51566;SDS011;37657;53.182;5.638;2023-07-29T02:59:20;6.95;;;3.60;;
51566;SDS011;37657;53.182;5.638;2023-07-29T03:01:46;8.07;;;4.82;;
51566;SDS011;37657;53.182;5.638;2023-07-29T03:04:11;10.02;;;4.10;;
51566;SDS011;37657;53.182;5.638;2023-07-29T03:06:38;6.15;;;4.10;;
51566;SDS011;37657;53.182;5.638;2023-07-29T03:09:03;7.90;;;4.18;;
51566;SDS011;37657;53.182;5.638;2023-07-29T03:11:29;12.13;;;3.30;;
51566;SDS011;37657;53.182;5.638;2023-07-29T03:13:56;8.20;;;3.85;;
51566;SDS011;37657;53.182;5.638;2023-07-29T03:16:22;4.72;;;3.65;;
51566;SDS011;37657;53.182;5.638;2023-07-29T03:18:47;4.55;;;3.15;;
51566;SDS011;37657;53.182;5.638;2023-07-29T03:21:13;8.10;;;4.10;;
51566;SDS011;37657;53.182;5.638;2023-07-29T03:23:39;6.65;;;3.53;;
51566;SDS011;37657;53.182;5.638;2023-07-29T03:26:05;5.22;;;3.22;;
51566;SDS011;37657;53.182;5.638;2023-07-29T03:28:35;5.43;;;3.28;;
51566;SDS011;37657;53.182;5.638;2023-07-29T03:31:07;5.72;;;3.08;;
51566;SDS011;37657;53.182;5.638;2023-07-29T03:33:33;6.22;;;3.78;;
51566;SDS011;37657;53.182;5.638;2023-07-29T03:35:59;8.07;;;3.47;;
51566;SDS011;37657;53.182;5.638;2023-07-29T03:38:25;6.00;;;4.35;;
51566;SDS011;37657;53.182;5.638;2023-07-29T03:40:50;8.45;;;4.30;;
51566;SDS011;37657;53.182;5.638;2023-07-29T03:43:16;6.88;;;3.28;;
51566;SDS011;37657;53.182;5.638;2023-07-29T03:45:42;7.57;;;3.50;;
51566;SDS011;37657;53.182;5.638;2023-07-29T03:48:07;7.50;;;2.80;;
51566;SDS011;37657;53.182;5.638;2023-07-29T03:50:34;4.80;;;3.33;;
51566;SDS011;37657;53.182;5.638;2023-07-29T03:53:00;15.27;;;4.10;;
51566;SDS011;37657;53.182;5.638;2023-07-29T03:55:27;6.25;;;3.50;;
51566;SDS011;37657;53.182;5.638;2023-07-29T03:57:54;6.43;;;3.28;;
51566;SDS011;37657;53.182;5.638;2023-07-29T04:00:21;4.60;;;2.30;;
51566;SDS011;37657;53.182;5.638;2023-07-29T04:02:46;4.75;;;2.55;;
51566;SDS011;37657;53.182;5.638;2023-07-29T04:05:12;7.22;;;3.45;;
51566;SDS011;37657;53.182;5.638;2023-07-29T04:07:38;7.28;;;3.47;;
51566;SDS011;37657;53.182;5.638;2023-07-29T04:10:03;7.22;;;3.80;;
51566;SDS011;37657;53.182;5.638;2023-07-29T04:12:30;6.90;;;3.53;;
51566;SDS011;37657;53.182;5.638;2023-07-29T04:14:56;4.20;;;3.00;;
51566;SDS011;37657;53.182;5.638;2023-07-29T04:17:21;7.93;;;3.60;;
51566;SDS011;37657;53.182;5.638;2023-07-29T04:19:47;6.88;;;3.30;;
51566;SDS011;37657;53.182;5.638;2023-07-29T04:22:12;3.45;;;3.15;;
51566;SDS011;37657;53.182;5.638;2023-07-29T04:24:39;6.35;;;3.13;;
51566;SDS011;37657;53.182;5.638;2023-07-29T04:27:05;5.80;;;3.50;;
51566;SDS011;37657;53.182;5.638;2023-07-29T04:29:30;5.65;;;3.80;;
51566;SDS011;37657;53.182;5.638;2023-07-29T04:31:56;5.35;;;3.10;;
51566;SDS011;37657;53.182;5.638;2023-07-29T04:34:22;6.25;;;3.20;;
51566;SDS011;37657;53.182;5.638;2023-07-29T04:36:47;5.38;;;3.10;;
51566;SDS011;37657;53.182;5.638;2023-07-29T04:39:13;5.30;;;3.13;;
51566;SDS011;37657;53.182;5.638;2023-07-29T04:41:39;6.18;;;3.67;;
51566;SDS011;37657;53.182;5.638;2023-07-29T04:44:05;7.95;;;3.55;;
51566;SDS011;37657;53.182;5.638;2023-07-29T04:46:31;8.15;;;3.20;;
51566;SDS011;37657;53.182;5.638;2023-07-29T04:48:56;7.22;;;4.28;;
51566;SDS011;37657;53.182;5.638;2023-07-29T04:51:22;8.80;;;3.13;;
51566;SDS011;37657;53.182;5.638;2023-07-29T04:53:48;5.75;;;3.28;;
51566;SDS011;37657;53.182;5.638;2023-07-29T04:56:14;6.97;;;3.58;;
51566;SDS011;37657;53.182;5.638;2023-07-29T04:58:40;10.00;;;3.20;;
51566;SDS011;37657;53.182;5.638;2023-07-29T05:01:05;8.13;;;3.95;;
51566;SDS011;37657;53.182;5.638;2023-07-29T05:03:31;3.83;;;2.63;;
51566;SDS011;37657;53.182;5.638;2023-07-29T05:05:57;6.50;;;3.47;;
51566;SDS011;37657;53.182;5.638;2023-07-29T05:08:24;6.03;;;3.90;;
51566;SDS011;37657;53.182;5.638;2023-07-29T05:10:50;6.38;;;3.50;;
51566;SDS011;37657;53.182;5.638;2023-07-29T05:13:17;4.75;;;3.20;;
51566;SDS011;37657;53.182;5.638;2023-07-29T05:15:42;5.70;;;3.63;;
51566;SDS011;37657;53.182;5.638;2023-07-29T05:18:08;7.35;;;3.20;;
51566;SDS011;37657;53.182;5.638;2023-07-29T05:20:34;7.10;;;3.67;;
51566;SDS011;37657;53.182;5.638;2023-07-29T05:22:59;8.43;;;3.55;;
51566;SDS011;37657;53.182;5.638;2023-07-29T05:25:25;7.30;;;3.78;;
51566;SDS011;37657;53.182;5.638;2023-07-29T05:27:51;6.47;;;3.58;;
51566;SDS011;37657;53.182;5.638;2023-07-29T05:30:17;6.63;;;3.78;;
51566;SDS011;37657;53.182;5.638;2023-07-29T05:32:42;7.13;;;4.32;;
51566;SDS011;37657;53.182;5.638;2023-07-29T05:35:08;4.20;;;2.88;;
51566;SDS011;37657;53.182;5.638;2023-07-29T05:37:39;8.32;;;4.57;;
51566;SDS011;37657;53.182;5.638;2023-07-29T05:40:05;5.47;;;3.72;;
51566;SDS011;37657;53.182;5.638;2023-07-29T05:42:32;6.07;;;3.88;;
51566;SDS011;37657;53.182;5.638;2023-07-29T05:44:58;8.20;;;3.53;;
51566;SDS011;37657;53.182;5.638;2023-07-29T05:47:24;9.43;;;4.00;;
51566;SDS011;37657;53.182;5.638;2023-07-29T05:49:50;7.45;;;3.58;;
51566;SDS011;37657;53.182;5.638;2023-07-29T05:52:15;12.77;;;5.38;;
51566;SDS011;37657;53.182;5.638;2023-07-29T05:54:41;19.70;;;4.93;;
51566;SDS011;37657;53.182;5.638;2023-07-29T05:57:08;6.18;;;3.78;;
51566;SDS011;37657;53.182;5.638;2023-07-29T05:59:34;8.57;;;5.38;;
51566;SDS011;37657;53.182;5.638;2023-07-29T06:02:00;8.38;;;4.15;;
51566;SDS011;37657;53.182;5.638;2023-07-29T06:04:25;4.82;;;3.20;;
51566;SDS011;37657;53.182;5.638;2023-07-29T06:07:03;8.75;;;4.25;;
51566;SDS011;37657;53.182;5.638;2023-07-29T06:09:29;11.43;;;3.90;;
51566;SDS011;37657;53.182;5.638;2023-07-29T06:11:54;5.70;;;3.85;;
51566;SDS011;37657;53.182;5.638;2023-07-29T06:14:20;9.35;;;4.70;;
51566;SDS011;37657;53.182;5.638;2023-07-29T06:16:45;7.30;;;3.58;;
51566;SDS011;37657;53.182;5.638;2023-07-29T06:19:11;5.22;;;3.28;;
51566;SDS011;37657;53.182;5.638;2023-07-29T06:21:38;8.43;;;4.95;;
51566;SDS011;37657;53.182;5.638;2023-07-29T06:24:03;12.48;;;4.22;;
51566;SDS011;37657;53.182;5.638;2023-07-29T06:26:29;8.10;;;4.10;;
51566;SDS011;37657;53.182;5.638;2023-07-29T06:28:55;7.45;;;3.25;;
51566;SDS011;37657;53.182;5.638;2023-07-29T06:31:20;8.35;;;3.60;;
51566;SDS011;37657;53.182;5.638;2023-07-29T06:33:47;6.57;;;3.95;;
51566;SDS011;37657;53.182;5.638;2023-07-29T06:36:13;8.13;;;3.95;;
51566;SDS011;37657;53.182;5.638;2023-07-29T06:38:39;7.07;;;3.70;;
51566;SDS011;37657;53.182;5.638;2023-07-29T06:41:04;10.38;;;4.40;;
51566;SDS011;37657;53.182;5.638;2023-07-29T06:43:30;7.32;;;3.97;;
51566;SDS011;37657;53.182;5.638;2023-07-29T06:45:56;8.77;;;3.70;;
51566;SDS011;37657;53.182;5.638;2023-07-29T06:48:22;7.28;;;3.60;;
51566;SDS011;37657;53.182;5.638;2023-07-29T06:50:47;9.68;;;3.75;;
51566;SDS011;37657;53.182;5.638;2023-07-29T06:53:15;6.68;;;3.03;;
51566;SDS011;37657;53.182;5.638;2023-07-29T06:55:40;7.28;;;3.75;;
51566;SDS011;37657;53.182;5.638;2023-07-29T06:58:06;7.28;;;3.28;;
51566;SDS011;37657;53.182;5.638;2023-07-29T07:00:32;6.35;;;3.72;;
51566;SDS011;37657;53.182;5.638;2023-07-29T07:02:58;7.05;;;3.42;;
51566;SDS011;37657;53.182;5.638;2023-07-29T07:05:23;7.47;;;3.30;;
51566;SDS011;37657;53.182;5.638;2023-07-29T07:07:49;6.07;;;3.28;;
51566;SDS011;37657;53.182;5.638;2023-07-29T07:10:14;6.72;;;3.63;;
51566;SDS011;37657;53.182;5.638;2023-07-29T07:12:40;9.93;;;4.45;;
51566;SDS011;37657;53.182;5.638;2023-07-29T07:15:06;5.90;;;2.67;;
51566;SDS011;37657;53.182;5.638;2023-07-29T07:17:35;11.80;;;4.32;;
51566;SDS011;37657;53.182;5.638;2023-07-29T07:20:01;7.00;;;3.50;;
51566;SDS011;37657;53.182;5.638;2023-07-29T07:22:26;6.25;;;3.30;;
51566;SDS011;37657;53.182;5.638;2023-07-29T07:24:52;6.82;;;3.55;;
51566;SDS011;37657;53.182;5.638;2023-07-29T07:27:17;7.15;;;3.95;;
51566;SDS011;37657;53.182;5.638;2023-07-29T07:29:43;8.73;;;3.80;;
51566;SDS011;37657;53.182;5.638;2023-07-29T07:32:08;7.88;;;3.28;;
51566;SDS011;37657;53.182;5.638;2023-07-29T07:34:34;7.65;;;3.60;;
51566;SDS011;37657;53.182;5.638;2023-07-29T07:37:00;6.82;;;3.35;;
51566;SDS011;37657;53.182;5.638;2023-07-29T07:39:26;5.30;;;3.70;;
51566;SDS011;37657;53.182;5.638;2023-07-29T07:41:51;5.53;;;3.05;;
51566;SDS011;37657;53.182;5.638;2023-07-29T07:44:17;11.13;;;2.97;;
51566;SDS011;37657;53.182;5.638;2023-07-29T07:46:44;5.78;;;3.13;;
51566;SDS011;37657;53.182;5.638;2023-07-29T07:49:10;6.25;;;2.83;;
51566;SDS011;37657;53.182;5.638;2023-07-29T07:51:36;5.60;;;3.10;;
51566;SDS011;37657;53.182;5.638;2023-07-29T07:54:01;5.88;;;3.13;;
51566;SDS011;37657;53.182;5.638;2023-07-29T07:56:27;4.82;;;2.90;;
51566;SDS011;37657;53.182;5.638;2023-07-29T07:58:52;5.40;;;2.83;;
51566;SDS011;37657;53.182;5.638;2023-07-29T08:01:18;4.97;;;2.78;;
51566;SDS011;37657;53.182;5.638;2023-07-29T08:03:44;4.18;;;2.28;;
51566;SDS011;37657;53.182;5.638;2023-07-29T08:06:10;5.55;;;2.60;;
51566;SDS011;37657;53.182;5.638;2023-07-29T08:08:35;5.78;;;2.67;;
51566;SDS011;37657;53.182;5.638;2023-07-29T08:11:01;7.18;;;2.92;;
51566;SDS011;37657;53.182;5.638;2023-07-29T08:13:26;4.70;;;2.40;;
51566;SDS011;37657;53.182;5.638;2023-07-29T08:15:52;5.28;;;2.35;;
51566;SDS011;37657;53.182;5.638;2023-07-29T08:18:18;8.57;;;3.55;;
51566;SDS011;37657;53.182;5.638;2023-07-29T08:20:56;6.40;;;2.50;;
51566;SDS011;37657;53.182;5.638;2023-07-29T08:23:24;4.75;;;2.58;;
51566;SDS011;37657;53.182;5.638;2023-07-29T08:25:51;7.63;;;3.22;;
51566;SDS011;37657;53.182;5.638;2023-07-29T08:28:18;4.13;;;1.90;;
51566;SDS011;37657;53.182;5.638;2023-07-29T08:30:44;6.82;;;2.70;;
51566;SDS011;37657;53.182;5.638;2023-07-29T08:33:09;4.60;;;2.60;;
51566;SDS011;37657;53.182;5.638;2023-07-29T08:35:35;5.20;;;2.67;;
51566;SDS011;37657;53.182;5.638;2023-07-29T08:38:01;5.57;;;3.40;;
51566;SDS011;37657;53.182;5.638;2023-07-29T08:40:28;9.35;;;2.55;;
51566;SDS011;37657;53.182;5.638;2023-07-29T08:42:56;3.83;;;2.55;;
51566;SDS011;37657;53.182;5.638;2023-07-29T08:45:29;7.20;;;2.63;;
51566;SDS011;37657;53.182;5.638;2023-07-29T08:47:59;8.82;;;3.13;;
51566;SDS011;37657;53.182;5.638;2023-07-29T08:50:27;3.78;;;2.22;;
51566;SDS011;37657;53.182;5.638;2023-07-29T08:52:53;8.48;;;3.00;;
51566;SDS011;37657;53.182;5.638;2023-07-29T08:55:19;7.13;;;2.88;;
51566;SDS011;37657;53.182;5.638;2023-07-29T08:57:46;4.25;;;2.45;;
51566;SDS011;37657;53.182;5.638;2023-07-29T09:00:11;4.18;;;2.20;;
51566;SDS011;37657;53.182;5.638;2023-07-29T09:02:38;6.07;;;2.80;;
51566;SDS011;37657;53.182;5.638;2023-07-29T09:05:04;5.00;;;2.75;;
51566;SDS011;37657;53.182;5.638;2023-07-29T09:07:30;4.95;;;2.22;;
51566;SDS011;37657;53.182;5.638;2023-07-29T09:09:58;5.35;;;2.75;;
51566;SDS011;37657;53.182;5.638;2023-07-29T09:12:24;4.10;;;2.58;;
51566;SDS011;37657;53.182;5.638;2023-07-29T09:14:53;6.63;;;2.33;;
51566;SDS011;37657;53.182;5.638;2023-07-29T09:17:19;3.80;;;1.90;;
51566;SDS011;37657;53.182;5.638;2023-07-29T09:19:47;3.95;;;1.83;;
51566;SDS011;37657;53.182;5.638;2023-07-29T09:22:17;6.30;;;3.17;;
51566;SDS011;37657;53.182;5.638;2023-07-29T09:24:45;4.40;;;2.72;;
51566;SDS011;37657;53.182;5.638;2023-07-29T09:27:23;3.85;;;2.80;;
51566;SDS011;37657;53.182;5.638;2023-07-29T09:29:53;5.93;;;2.90;;
51566;SDS011;37657;53.182;5.638;2023-07-29T09:32:19;4.20;;;2.25;;
51566;SDS011;37657;53.182;5.638;2023-07-29T09:34:46;3.88;;;2.03;;
51566;SDS011;37657;53.182;5.638;2023-07-29T09:37:20;4.07;;;2.35;;
51566;SDS011;37657;53.182;5.638;2023-07-29T09:39:49;9.05;;;2.97;;
51566;SDS011;37657;53.182;5.638;2023-07-29T09:42:17;9.02;;;3.53;;
51566;SDS011;37657;53.182;5.638;2023-07-29T09:44:43;5.60;;;2.63;;
51566;SDS011;37657;53.182;5.638;2023-07-29T09:47:09;4.22;;;2.75;;
51566;SDS011;37657;53.182;5.638;2023-07-29T09:49:35;14.48;;;3.40;;
51566;SDS011;37657;53.182;5.638;2023-07-29T09:52:03;5.50;;;2.40;;
51566;SDS011;37657;53.182;5.638;2023-07-29T09:54:30;5.30;;;2.58;;
51566;SDS011;37657;53.182;5.638;2023-07-29T09:56:56;6.35;;;2.75;;
51566;SDS011;37657;53.182;5.638;2023-07-29T09:59:23;4.55;;;2.35;;
51566;SDS011;37657;53.182;5.638;2023-07-29T10:01:49;5.78;;;2.30;;
51566;SDS011;37657;53.182;5.638;2023-07-29T10:04:15;3.72;;;2.15;;
51566;SDS011;37657;53.182;5.638;2023-07-29T10:06:42;3.38;;;1.77;;
51566;SDS011;37657;53.182;5.638;2023-07-29T10:09:08;4.85;;;2.38;;
51566;SDS011;37657;53.182;5.638;2023-07-29T10:11:36;7.63;;;3.05;;
51566;SDS011;37657;53.182;5.638;2023-07-29T10:14:03;3.53;;;2.20;;
51566;SDS011;37657;53.182;5.638;2023-07-29T10:16:29;3.97;;;2.22;;
51566;SDS011;37657;53.182;5.638;2023-07-29T10:18:54;3.15;;;1.52;;
51566;SDS011;37657;53.182;5.638;2023-07-29T10:21:22;3.63;;;2.03;;
51566;SDS011;37657;53.182;5.638;2023-07-29T10:23:48;3.17;;;1.80;;
51566;SDS011;37657;53.182;5.638;2023-07-29T10:26:18;3.63;;;1.83;;
51566;SDS011;37657;53.182;5.638;2023-07-29T10:28:46;7.25;;;2.88;;
51566;SDS011;37657;53.182;5.638;2023-07-29T10:31:13;7.53;;;2.63;;
51566;SDS011;37657;53.182;5.638;2023-07-29T10:33:41;4.00;;;2.42;;
51566;SDS011;37657;53.182;5.638;2023-07-29T10:36:08;5.38;;;3.10;;
51566;SDS011;37657;53.182;5.638;2023-07-29T10:38:34;6.82;;;2.67;;
51566;SDS011;37657;53.182;5.638;2023-07-29T10:41:00;8.23;;;3.70;;
51566;SDS011;37657;53.182;5.638;2023-07-29T10:45:53;4.18;;;2.00;;
51566;SDS011;37657;53.182;5.638;2023-07-29T10:53:58;3.42;;;1.38;;
51566;SDS011;37657;53.182;5.638;2023-07-29T10:56:29;4.45;;;1.38;;
51566;SDS011;37657;53.182;5.638;2023-07-29T10:59:53;4.82;;;1.65;;
51566;SDS011;37657;53.182;5.638;2023-07-29T11:07:01;4.07;;;1.85;;
51566;SDS011;37657;53.182;5.638;2023-07-29T11:09:42;4.90;;;2.10;;
51566;SDS011;37657;53.182;5.638;2023-07-29T11:17:50;6.10;;;2.28;;
51566;SDS011;37657;53.182;5.638;2023-07-29T11:20:18;3.50;;;1.80;;
51566;SDS011;37657;53.182;5.638;2023-07-29T11:22:45;8.55;;;2.58;;
51566;SDS011;37657;53.182;5.638;2023-07-29T11:25:11;3.88;;;2.22;;
51566;SDS011;37657;53.182;5.638;2023-07-29T11:27:39;3.80;;;2.08;;
51566;SDS011;37657;53.182;5.638;2023-07-29T11:30:09;6.63;;;2.75;;
51566;SDS011;37657;53.182;5.638;2023-07-29T11:32:37;3.42;;;1.85;;
51566;SDS011;37657;53.182;5.638;2023-07-29T11:37:33;4.35;;;2.50;;
51566;SDS011;37657;53.182;5.638;2023-07-29T11:39:59;2.85;;;1.90;;
51566;SDS011;37657;53.182;5.638;2023-07-29T11:42:26;4.45;;;2.00;;
51566;SDS011;37657;53.182;5.638;2023-07-29T11:44:53;3.03;;;2.03;;
51566;SDS011;37657;53.182;5.638;2023-07-29T11:47:21;3.78;;;1.90;;
51566;SDS011;37657;53.182;5.638;2023-07-29T11:49:47;3.45;;;2.00;;
51566;SDS011;37657;53.182;5.638;2023-07-29T11:52:12;2.88;;;1.98;;
51566;SDS011;37657;53.182;5.638;2023-07-29T11:54:39;5.47;;;2.25;;
51566;SDS011;37657;53.182;5.638;2023-07-29T11:57:08;4.22;;;2.10;;
51566;SDS011;37657;53.182;5.638;2023-07-29T11:59:34;5.63;;;2.03;;
51566;SDS011;37657;53.182;5.638;2023-07-29T12:02:02;3.70;;;1.88;;
51566;SDS011;37657;53.182;5.638;2023-07-29T12:04:33;7.00;;;2.58;;
51566;SDS011;37657;53.182;5.638;2023-07-29T12:06:59;4.20;;;1.98;;
51566;SDS011;37657;53.182;5.638;2023-07-29T12:09:26;6.55;;;2.53;;
51566;SDS011;37657;53.182;5.638;2023-07-29T12:11:53;8.10;;;2.95;;
51566;SDS011;37657;53.182;5.638;2023-07-29T12:14:19;6.65;;;2.60;;
51566;SDS011;37657;53.182;5.638;2023-07-29T12:16:47;6.90;;;2.92;;
51566;SDS011;37657;53.182;5.638;2023-07-29T12:19:13;6.65;;;2.28;;
51566;SDS011;37657;53.182;5.638;2023-07-29T12:21:41;8.57;;;3.25;;
51566;SDS011;37657;53.182;5.638;2023-07-29T12:24:07;7.93;;;3.08;;
51566;SDS011;37657;53.182;5.638;2023-07-29T12:26:32;5.55;;;2.35;;
51566;SDS011;37657;53.182;5.638;2023-07-29T12:28:58;5.75;;;2.05;;
51566;SDS011;37657;53.182;5.638;2023-07-29T12:31:30;3.75;;;1.85;;
51566;SDS011;37657;53.182;5.638;2023-07-29T12:33:57;4.18;;;2.58;;
51566;SDS011;37657;53.182;5.638;2023-07-29T12:36:27;4.13;;;3.03;;
51566;SDS011;37657;53.182;5.638;2023-07-29T12:39:06;4.10;;;2.58;;
51566;SDS011;37657;53.182;5.638;2023-07-29T12:41:40;8.63;;;3.25;;
51566;SDS011;37657;53.182;5.638;2023-07-29T12:44:06;6.68;;;2.78;;
51566;SDS011;37657;53.182;5.638;2023-07-29T12:46:31;5.00;;;2.28;;
51566;SDS011;37657;53.182;5.638;2023-07-29T12:48:57;4.68;;;2.78;;
51566;SDS011;37657;53.182;5.638;2023-07-29T12:51:22;5.78;;;2.72;;
51566;SDS011;37657;53.182;5.638;2023-07-29T12:53:48;9.18;;;3.00;;
51566;SDS011;37657;53.182;5.638;2023-07-29T12:56:13;6.10;;;2.60;;
51566;SDS011;37657;53.182;5.638;2023-07-29T12:58:39;5.43;;;2.70;;
51566;SDS011;37657;53.182;5.638;2023-07-29T13:01:04;11.90;;;3.10;;
51566;SDS011;37657;53.182;5.638;2023-07-29T13:03:30;4.70;;;2.60;;
51566;SDS011;37657;53.182;5.638;2023-07-29T13:05:55;4.45;;;2.55;;
51566;SDS011;37657;53.182;5.638;2023-07-29T13:08:21;4.95;;;2.47;;
51566;SDS011;37657;53.182;5.638;2023-07-29T13:10:48;5.20;;;2.67;;
51566;SDS011;37657;53.182;5.638;2023-07-29T13:13:13;3.85;;;2.40;;
51566;SDS011;37657;53.182;5.638;2023-07-29T13:15:39;6.57;;;2.90;;
51566;SDS011;37657;53.182;5.638;2023-07-29T13:18:04;4.78;;;2.63;;
51566;SDS011;37657;53.182;5.638;2023-07-29T13:20:30;6.25;;;3.63;;
51566;SDS011;37657;53.182;5.638;2023-07-29T13:22:56;5.72;;;2.45;;
51566;SDS011;37657;53.182;5.638;2023-07-29T13:25:21;5.82;;;2.45;;
51566;SDS011;37657;53.182;5.638;2023-07-29T13:27:47;7.15;;;3.55;;
51566;SDS011;37657;53.182;5.638;2023-07-29T13:30:12;6.18;;;3.42;;
51566;SDS011;37657;53.182;5.638;2023-07-29T13:32:38;3.97;;;2.67;;
51566;SDS011;37657;53.182;5.638;2023-07-29T13:35:03;5.22;;;3.20;;
51566;SDS011;37657;53.182;5.638;2023-07-29T13:37:29;5.82;;;2.78;;
51566;SDS011;37657;53.182;5.638;2023-07-29T13:39:55;6.65;;;3.38;;
51566;SDS011;37657;53.182;5.638;2023-07-29T13:42:20;7.90;;;3.20;;
51566;SDS011;37657;53.182;5.638;2023-07-29T13:44:46;6.43;;;2.35;;
51566;SDS011;37657;53.182;5.638;2023-07-29T13:47:11;8.77;;;2.85;;
51566;SDS011;37657;53.182;5.638;2023-07-29T13:49:37;6.45;;;3.35;;
51566;SDS011;37657;53.182;5.638;2023-07-29T13:52:02;5.05;;;1.83;;
51566;SDS011;37657;53.182;5.638;2023-07-29T13:54:28;7.03;;;2.70;;
51566;SDS011;37657;53.182;5.638;2023-07-29T13:56:53;6.85;;;2.80;;
51566;SDS011;37657;53.182;5.638;2023-07-29T13:59:19;4.43;;;2.13;;
51566;SDS011;37657;53.182;5.638;2023-07-29T14:01:45;3.78;;;1.88;;
51566;SDS011;37657;53.182;5.638;2023-07-29T14:04:10;5.97;;;2.63;;
51566;SDS011;37657;53.182;5.638;2023-07-29T14:06:36;11.48;;;2.42;;
51566;SDS011;37657;53.182;5.638;2023-07-29T14:09:01;5.00;;;2.13;;
51566;SDS011;37657;53.182;5.638;2023-07-29T14:11:27;5.18;;;2.70;;
51566;SDS011;37657;53.182;5.638;2023-07-29T14:13:52;4.05;;;3.13;;
51566;SDS011;37657;53.182;5.638;2023-07-29T14:16:18;4.35;;;2.05;;
51566;SDS011;37657;53.182;5.638;2023-07-29T14:18:43;7.60;;;2.15;;
51566;SDS011;37657;53.182;5.638;2023-07-29T14:21:09;5.93;;;2.17;;
51566;SDS011;37657;53.182;5.638;2023-07-29T14:23:34;5.32;;;1.90;;
51566;SDS011;37657;53.182;5.638;2023-07-29T14:26:00;4.65;;;1.63;;
51566;SDS011;37657;53.182;5.638;2023-07-29T14:28:25;4.53;;;2.13;;
51566;SDS011;37657;53.182;5.638;2023-07-29T14:30:51;4.40;;;2.80;;
51566;SDS011;37657;53.182;5.638;2023-07-29T14:33:17;2.75;;;1.92;;
51566;SDS011;37657;53.182;5.638;2023-07-29T14:35:43;4.05;;;1.73;;
51566;SDS011;37657;53.182;5.638;2023-07-29T14:38:08;3.28;;;1.88;;
51566;SDS011;37657;53.182;5.638;2023-07-29T14:40:34;8.40;;;2.30;;
51566;SDS011;37657;53.182;5.638;2023-07-29T14:42:59;5.43;;;2.60;;
51566;SDS011;37657;53.182;5.638;2023-07-29T14:45:25;3.85;;;1.73;;
51566;SDS011;37657;53.182;5.638;2023-07-29T14:47:50;5.50;;;2.22;;
51566;SDS011;37657;53.182;5.638;2023-07-29T14:50:16;7.32;;;2.78;;
51566;SDS011;37657;53.182;5.638;2023-07-29T14:52:42;4.35;;;2.28;;
51566;SDS011;37657;53.182;5.638;2023-07-29T14:55:07;3.60;;;1.48;;
51566;SDS011;37657;53.182;5.638;2023-07-29T14:57:33;3.35;;;2.05;;
51566;SDS011;37657;53.182;5.638;2023-07-29T14:59:58;7.72;;;2.05;;
51566;SDS011;37657;53.182;5.638;2023-07-29T15:02:24;3.08;;;1.80;;
51566;SDS011;37657;53.182;5.638;2023-07-29T15:04:50;3.92;;;2.17;;
51566;SDS011;37657;53.182;5.638;2023-07-29T15:07:16;4.75;;;2.15;;
51566;SDS011;37657;53.182;5.638;2023-07-29T15:09:41;3.28;;;1.60;;
51566;SDS011;37657;53.182;5.638;2023-07-29T15:12:07;2.90;;;1.42;;